Time;durP1;ratioP1;P1;durP2;ratioP2;P2;SDS_P1;SDS_P2;PMS_P1;PMS_P2;Temp;Humidity;BMP_temperature;BMP_pressure;BME280_temperature;BME280_humidity;BME280_pressure;Samples;Min_cycle;Max_cycle;Signal;HPM_P1;HPM_P2
2022/06/24 00:01:11;;;;;;;2.03;0.60;;;;;;;;;;5012596;28;20033;-63
2022/06/24 00:03:38;;;;;;;1.60;1.13;;;;;;;;;;5012450;28;20092;-56
2022/06/24 00:06:08;;;;;;;1.77;1.13;;;;;;;;;;5010574;28;20113;-54
2022/06/24 00:08:46;;;;;;;2.30;0.87;;;;;;;;;;5012831;28;20034;-62
2022/06/24 00:11:12;;;;;;;2.03;0.70;;;;;;;;;;5027721;28;20053;-62
2022/06/24 00:13:39;;;;;;;2.72;1.00;;;;;;;;;;5013396;28;20030;-62
2022/06/24 00:16:05;;;;;;;1.48;0.80;;;;;;;;;;5012234;28;20026;-56
2022/06/24 00:18:31;;;;;;;2.03;0.85;;;;;;;;;;5012431;28;20076;-62
2022/06/24 00:20:57;;;;;;;1.55;0.80;;;;;;;;;;5004362;28;20033;-63
2022/06/24 00:23:23;;;;;;;2.15;0.93;;;;;;;;;;5014585;28;20609;-62
2022/06/24 00:25:50;;;;;;;1.27;0.70;;;;;;;;;;5012230;28;20549;-63
2022/06/24 00:28:16;;;;;;;1.98;0.80;;;;;;;;;;5019837;28;20051;-63
2022/06/24 00:30:42;;;;;;;1.63;1.13;;;;;;;;;;5031903;28;20053;-63
2022/06/24 00:33:10;;;;;;;2.30;1.05;;;;;;;;;;5030648;28;20025;-63
2022/06/24 00:35:37;;;;;;;2.17;1.05;;;;;;;;;;5030716;28;20045;-63
2022/06/24 00:38:20;;;;;;;1.38;0.70;;;;;;;;;;5031508;28;20520;-55
2022/06/24 00:40:47;;;;;;;2.45;0.70;;;;;;;;;;5030710;28;20029;-60
2022/06/24 00:43:19;;;;;;;1.98;0.80;;;;;;;;;;5029715;28;20379;-63
2022/06/24 00:45:48;;;;;;;1.60;0.70;;;;;;;;;;5031335;28;20382;-62
2022/06/24 00:48:15;;;;;;;1.52;0.70;;;;;;;;;;5029766;28;20375;-63
2022/06/24 00:50:45;;;;;;;2.03;0.93;;;;;;;;;;5030912;28;20037;-63
2022/06/24 00:53:11;;;;;;;1.90;1.23;;;;;;;;;;5031001;28;20026;-62
2022/06/24 00:55:38;;;;;;;1.65;0.80;;;;;;;;;;5031658;28;20041;-62
2022/06/24 00:58:04;;;;;;;2.42;0.73;;;;;;;;;;5030204;28;20096;-55
2022/06/24 01:00:32;;;;;;;1.35;0.80;;;;;;;;;;5031209;28;20033;-63
2022/06/24 01:03:03;;;;;;;1.45;0.80;;;;;;;;;;5031311;28;20417;-63
2022/06/24 01:05:30;;;;;;;3.33;0.93;;;;;;;;;;5029481;28;20021;-63
2022/06/24 01:07:56;;;;;;;1.38;0.63;;;;;;;;;;5031106;28;20276;-63
2022/06/24 01:10:22;;;;;;;1.27;0.80;;;;;;;;;;5030524;28;20033;-62
2022/06/24 01:12:48;;;;;;;2.15;0.80;;;;;;;;;;5030485;28;20033;-61
2022/06/24 01:15:15;;;;;;;2.28;0.60;;;;;;;;;;5028752;28;20022;-62
2022/06/24 01:17:41;;;;;;;0.70;0.70;;;;;;;;;;5031248;28;20378;-62
2022/06/24 01:20:11;;;;;;;1.45;0.80;;;;;;;;;;5030766;28;20033;-53
2022/06/24 01:22:38;;;;;;;1.45;0.80;;;;;;;;;;5031575;28;20068;-63
2022/06/24 01:25:04;;;;;;;1.63;0.70;;;;;;;;;;5031087;28;20026;-63
2022/06/24 01:27:30;;;;;;;1.05;0.60;;;;;;;;;;5030300;28;20037;-63
2022/06/24 01:29:56;;;;;;;1.17;0.50;;;;;;;;;;5030710;28;20053;-63
2022/06/24 01:32:22;;;;;;;1.67;0.70;;;;;;;;;;5029557;28;20079;-63
2022/06/24 01:34:48;;;;;;;1.58;1.10;;;;;;;;;;5028839;28;20034;-63
2022/06/24 01:37:14;;;;;;;2.03;0.80;;;;;;;;;;5030384;28;20057;-61
2022/06/24 01:39:41;;;;;;;1.88;0.80;;;;;;;;;;5031249;28;20073;-61
2022/06/24 01:42:07;;;;;;;1.10;0.85;;;;;;;;;;5030975;28;20360;-54
2022/06/24 01:44:34;;;;;;;2.22;1.10;;;;;;;;;;5033901;28;20025;-61
2022/06/24 01:47:00;;;;;;;2.20;0.85;;;;;;;;;;5028519;28;20034;-62
2022/06/24 01:49:26;;;;;;;2.75;1.00;;;;;;;;;;5032420;28;20041;-63
2022/06/24 01:51:53;;;;;;;1.55;0.82;;;;;;;;;;5034653;28;20148;-61
2022/06/24 01:54:19;;;;;;;1.80;0.75;;;;;;;;;;5033382;28;20092;-64
2022/06/24 01:56:45;;;;;;;2.47;0.60;;;;;;;;;;5034000;28;20087;-63
2022/06/24 01:59:12;;;;;;;2.05;0.60;;;;;;;;;;5034111;28;20052;-62
2022/06/24 02:01:38;;;;;;;1.63;0.77;;;;;;;;;;5033438;28;20036;-63
2022/06/24 02:04:04;;;;;;;1.35;0.80;;;;;;;;;;5032237;28;20025;-63
2022/06/24 02:06:30;;;;;;;1.85;0.95;;;;;;;;;;5033768;28;20033;-64
2022/06/24 02:08:56;;;;;;;2.00;0.70;;;;;;;;;;5033882;28;20041;-63
2022/06/24 02:14:09;;;;;;;1.38;0.80;;;;;;;;;;5034129;28;20100;-52
2022/06/24 02:16:35;;;;;;;2.55;0.82;;;;;;;;;;5034043;28;20037;-63
2022/06/24 02:19:02;;;;;;;3.10;0.80;;;;;;;;;;5034231;28;20371;-62
2022/06/24 02:21:28;;;;;;;1.45;0.80;;;;;;;;;;5032096;28;20033;-63
2022/06/24 02:23:54;;;;;;;1.40;0.80;;;;;;;;;;5033966;28;20492;-62
2022/06/24 02:26:20;;;;;;;1.85;0.80;;;;;;;;;;5033557;28;20026;-63
2022/06/24 02:28:46;;;;;;;1.48;0.70;;;;;;;;;;5034224;28;20049;-63
2022/06/24 02:31:12;;;;;;;1.60;0.75;;;;;;;;;;5031230;28;20073;-57
2022/06/24 02:33:38;;;;;;;1.60;0.90;;;;;;;;;;5025268;28;20030;-63
2022/06/24 02:36:05;;;;;;;1.75;0.88;;;;;;;;;;5030777;28;20024;-63
2022/06/24 02:38:32;;;;;;;2.85;0.80;;;;;;;;;;5033171;28;20030;-62
2022/06/24 02:40:58;;;;;;;3.97;0.90;;;;;;;;;;5034174;28;20100;-62
2022/06/24 02:43:26;;;;;;;1.77;0.80;;;;;;;;;;5033414;28;20013;-63
2022/06/24 02:46:10;;;;;;;1.27;0.70;;;;;;;;;;5032797;28;20037;-63
2022/06/24 02:48:38;;;;;;;1.92;0.80;;;;;;;;;;5031685;28;20022;-63
2022/06/24 02:51:05;;;;;;;1.45;0.60;;;;;;;;;;5033795;28;20478;-63
2022/06/24 02:53:32;;;;;;;1.20;0.90;;;;;;;;;;5031243;28;20563;-63
2022/06/24 02:55:58;;;;;;;2.13;0.80;;;;;;;;;;5033739;28;20033;-62
2022/06/24 02:58:25;;;;;;;2.47;0.85;;;;;;;;;;5032610;28;20045;-62
2022/06/24 03:00:51;;;;;;;2.40;0.65;;;;;;;;;;5032793;28;20033;-63
2022/06/24 03:03:18;;;;;;;1.52;0.60;;;;;;;;;;5032953;28;20033;-62
2022/06/24 03:05:45;;;;;;;1.92;1.05;;;;;;;;;;5033182;28;20378;-62
2022/06/24 03:08:12;;;;;;;1.67;0.55;;;;;;;;;;5033447;28;20033;-51
2022/06/24 03:10:38;;;;;;;1.92;0.90;;;;;;;;;;5031653;28;20033;-62
2022/06/24 03:13:04;;;;;;;1.13;0.60;;;;;;;;;;5033268;28;20037;-62
2022/06/24 03:15:31;;;;;;;3.03;0.70;;;;;;;;;;5032742;28;20152;-63
2022/06/24 03:17:57;;;;;;;1.25;0.70;;;;;;;;;;5033202;28;20088;-62
2022/06/24 03:20:23;;;;;;;1.45;0.70;;;;;;;;;;5032542;28;20040;-62
2022/06/24 03:22:49;;;;;;;1.65;0.88;;;;;;;;;;5032810;28;20029;-63
2022/06/24 03:25:15;;;;;;;3.90;1.63;;;;;;;;;;5032428;28;20472;-52
2022/06/24 03:27:41;;;;;;;2.42;0.70;;;;;;;;;;5029366;28;20109;-63
2022/06/24 03:30:09;;;;;;;1.65;1.08;;;;;;;;;;5030735;28;20080;-63
2022/06/24 03:32:35;;;;;;;2.20;0.80;;;;;;;;;;5031012;28;20376;-63
2022/06/24 03:35:01;;;;;;;1.73;1.00;;;;;;;;;;5033090;28;20025;-63
2022/06/24 03:37:29;;;;;;;2.25;0.90;;;;;;;;;;5031843;28;20053;-63
2022/06/24 03:39:55;;;;;;;1.33;1.08;;;;;;;;;;5033216;28;20026;-63
2022/06/24 03:42:21;;;;;;;0.98;0.55;;;;;;;;;;5031907;28;20105;-63
2022/06/24 03:44:47;;;;;;;1.73;0.70;;;;;;;;;;5031012;28;20033;-62
2022/06/24 03:47:13;;;;;;;1.77;0.70;;;;;;;;;;5029455;28;20021;-55
2022/06/24 03:49:39;;;;;;;2.92;0.80;;;;;;;;;;5032334;28;20026;-63
2022/06/24 03:52:05;;;;;;;1.92;0.65;;;;;;;;;;5032472;28;20040;-62
2022/06/24 03:54:31;;;;;;;1.33;0.80;;;;;;;;;;5031755;28;20060;-61
2022/06/24 03:56:57;;;;;;;2.15;0.82;;;;;;;;;;5032661;28;20053;-65
2022/06/24 03:59:23;;;;;;;1.63;0.80;;;;;;;;;;5014038;28;20079;-65
2022/06/24 04:01:49;;;;;;;0.95;0.70;;;;;;;;;;5027848;28;20033;-62
2022/06/24 04:04:15;;;;;;;6.43;0.90;;;;;;;;;;5031654;28;20018;-53
2022/06/24 04:06:41;;;;;;;1.48;0.60;;;;;;;;;;5031856;28;20171;-63
2022/06/24 04:09:07;;;;;;;1.85;0.80;;;;;;;;;;5031521;28;20104;-63
2022/06/24 04:11:33;;;;;;;3.80;1.05;;;;;;;;;;5030988;28;20021;-63
2022/06/24 04:14:00;;;;;;;2.83;0.82;;;;;;;;;;5032285;28;20103;-63
2022/06/24 04:16:26;;;;;;;1.55;0.88;;;;;;;;;;5031575;28;20051;-63
2022/06/24 04:18:52;;;;;;;2.08;0.82;;;;;;;;;;5031397;28;20052;-57
2022/06/24 04:21:18;;;;;;;2.97;0.73;;;;;;;;;;5031874;28;20100;-55
2022/06/24 04:23:45;;;;;;;2.60;1.10;;;;;;;;;;5031992;28;20029;-61
2022/06/24 04:26:11;;;;;;;0.98;0.80;;;;;;;;;;5032053;28;20057;-63
2022/06/24 04:28:37;;;;;;;1.20;0.63;;;;;;;;;;5031337;28;20029;-64
2022/06/24 04:31:03;;;;;;;1.58;0.80;;;;;;;;;;5030549;28;20502;-64
2022/06/24 04:33:29;;;;;;;1.48;0.63;;;;;;;;;;5031129;28;20497;-64
2022/06/24 04:35:55;;;;;;;1.38;0.85;;;;;;;;;;5031073;28;20048;-64
2022/06/24 04:38:21;;;;;;;3.38;0.80;;;;;;;;;;5030691;28;20108;-63
2022/06/24 04:40:47;;;;;;;1.83;0.70;;;;;;;;;;5032022;28;20091;-64
2022/06/24 04:43:13;;;;;;;2.20;0.82;;;;;;;;;;5031482;28;20466;-65
2022/06/24 04:45:39;;;;;;;1.40;0.80;;;;;;;;;;5031164;28;20175;-64
2022/06/24 04:48:06;;;;;;;1.40;0.77;;;;;;;;;;5025893;28;20105;-65
2022/06/24 04:50:32;;;;;;;2.67;1.02;;;;;;;;;;5030977;28;20033;-64
2022/06/24 04:52:58;;;;;;;1.17;0.70;;;;;;;;;;5031549;28;20036;-64
2022/06/24 04:55:24;;;;;;;2.15;0.70;;;;;;;;;;5028516;28;20033;-62
2022/06/24 04:57:50;;;;;;;1.15;0.90;;;;;;;;;;5031418;28;20025;-62
2022/06/24 05:00:16;;;;;;;2.53;0.80;;;;;;;;;;5029761;28;21251;-55
2022/06/24 05:02:42;;;;;;;2.72;0.90;;;;;;;;;;5030638;28;20054;-62
2022/06/24 05:05:12;;;;;;;3.95;1.42;;;;;;;;;;5031095;28;20026;-63
2022/06/24 05:07:40;;;;;;;1.67;0.70;;;;;;;;;;5030989;28;20032;-62
2022/06/24 05:10:06;;;;;;;2.05;0.95;;;;;;;;;;5031304;28;20364;-63
2022/06/24 05:12:32;;;;;;;2.55;0.80;;;;;;;;;;5029421;28;20029;-63
2022/06/24 05:14:58;;;;;;;2.10;0.82;;;;;;;;;;5031122;28;20469;-63
2022/06/24 05:17:24;;;;;;;1.70;0.75;;;;;;;;;;5031881;28;20032;-62
2022/06/24 05:19:53;;;;;;;1.65;0.80;;;;;;;;;;5027734;28;20026;-63
2022/06/24 05:22:20;;;;;;;1.30;0.63;;;;;;;;;;5034534;28;20029;-52
2022/06/24 05:24:46;;;;;;;1.27;0.80;;;;;;;;;;5035326;28;20053;-64
2022/06/24 05:27:12;;;;;;;2.38;1.13;;;;;;;;;;5028498;28;20056;-62
2022/06/24 05:29:38;;;;;;;2.10;0.80;;;;;;;;;;5027199;28;20388;-67
2022/06/24 05:32:04;;;;;;;1.98;0.80;;;;;;;;;;5010303;28;20049;-62
2022/06/24 05:34:30;;;;;;;2.72;0.88;;;;;;;;;;5013787;28;20061;-63
2022/06/24 05:36:56;;;;;;;4.57;1.00;;;;;;;;;;5014319;28;20032;-65
2022/06/24 05:39:22;;;;;;;4.60;1.45;;;;;;;;;;5013489;28;20034;-59
2022/06/24 05:41:48;;;;;;;3.08;0.85;;;;;;;;;;5012653;28;20100;-64
2022/06/24 05:44:14;;;;;;;4.38;1.17;;;;;;;;;;5015229;28;20443;-66
2022/06/24 05:46:40;;;;;;;4.88;1.45;;;;;;;;;;5011633;28;20021;-69
2022/06/24 05:49:06;;;;;;;1.65;0.80;;;;;;;;;;5012981;28;20041;-68
2022/06/24 05:51:36;;;;;;;4.53;1.15;;;;;;;;;;5014499;28;20022;-68
2022/06/24 05:56:46;;;;;;;5.55;2.00;;;;;;;;;;5008070;28;20064;-61
2022/06/24 05:59:13;;;;;;;5.70;1.52;;;;;;;;;;5014794;28;20034;-68
2022/06/24 06:01:39;;;;;;;10.40;1.48;;;;;;;;;;5007792;28;20030;-66
2022/06/24 06:04:05;;;;;;;5.40;1.80;;;;;;;;;;5011087;28;20060;-65
2022/06/24 06:06:31;;;;;;;7.47;2.63;;;;;;;;;;5013471;28;20022;-65
2022/06/24 06:08:57;;;;;;;5.43;1.27;;;;;;;;;;5013725;28;20036;-65
2022/06/24 06:11:25;;;;;;;4.95;1.73;;;;;;;;;;5014089;28;20022;-58
2022/06/24 06:13:52;;;;;;;4.57;1.20;;;;;;;;;;5012648;28;20026;-65
2022/06/24 06:16:18;;;;;;;6.35;1.60;;;;;;;;;;5014353;28;20036;-65
2022/06/24 06:18:44;;;;;;;6.40;1.50;;;;;;;;;;5010797;28;20025;-67
2022/06/24 06:21:11;;;;;;;9.23;3.70;;;;;;;;;;5012985;28;20022;-66
2022/06/24 06:23:38;;;;;;;6.78;1.80;;;;;;;;;;5008952;28;20034;-66
2022/06/24 06:26:05;;;;;;;6.00;2.50;;;;;;;;;;5010157;28;20518;-65
2022/06/24 06:28:31;;;;;;;8.38;1.65;;;;;;;;;;5012428;28;20029;-65
2022/06/24 06:30:57;;;;;;;2.67;1.50;;;;;;;;;;5016825;28;20053;-65
2022/06/24 06:33:24;;;;;;;4.35;1.42;;;;;;;;;;5028839;28;20029;-58
2022/06/24 06:35:50;;;;;;;8.75;1.77;;;;;;;;;;5023457;28;20022;-65
2022/06/24 06:38:16;;;;;;;6.95;1.60;;;;;;;;;;5022540;28;20093;-65
2022/06/24 06:40:42;;;;;;;6.78;2.45;;;;;;;;;;5029935;28;20160;-65
2022/06/24 06:43:09;;;;;;;5.25;1.30;;;;;;;;;;5029294;28;20037;-66
2022/06/24 06:45:35;;;;;;;5.80;1.83;;;;;;;;;;5028942;28;20144;-66
2022/06/24 06:48:01;;;;;;;15.15;2.30;;;;;;;;;;5023400;28;20111;-66
2022/06/24 06:50:27;;;;;;;3.15;1.38;;;;;;;;;;5037712;28;20029;-65
2022/06/24 06:52:53;;;;;;;8.60;2.10;;;;;;;;;;5026849;28;20057;-66
2022/06/24 06:55:19;;;;;;;6.80;1.48;;;;;;;;;;5026857;28;20025;-66
2022/06/24 06:57:46;;;;;;;4.50;1.40;;;;;;;;;;5022866;28;20377;-66
2022/06/24 07:00:12;;;;;;;4.95;1.38;;;;;;;;;;5025813;28;20466;-66
2022/06/24 07:02:38;;;;;;;4.47;1.25;;;;;;;;;;5023576;28;20109;-65
2022/06/24 07:05:05;;;;;;;3.65;1.48;;;;;;;;;;5032348;28;20030;-66
2022/06/24 07:07:31;;;;;;;3.80;1.38;;;;;;;;;;5025610;28;20104;-65
2022/06/24 07:09:57;;;;;;;5.90;1.55;;;;;;;;;;5025019;28;20124;-65
2022/06/24 07:12:23;;;;;;;4.60;1.38;;;;;;;;;;5025145;28;20076;-56
2022/06/24 07:14:49;;;;;;;3.97;1.30;;;;;;;;;;5016646;28;20040;-66
2022/06/24 07:17:16;;;;;;;5.35;1.30;;;;;;;;;;5032897;28;20109;-66
2022/06/24 07:19:42;;;;;;;4.00;1.13;;;;;;;;;;5030136;28;20026;-66
2022/06/24 07:22:08;;;;;;;4.07;1.70;;;;;;;;;;5031641;28;20030;-67
2022/06/24 07:24:34;;;;;;;4.57;1.55;;;;;;;;;;5030369;28;20148;-67
2022/06/24 07:27:04;;;;;;;3.97;1.23;;;;;;;;;;5030320;28;20044;-67
2022/06/24 07:29:33;;;;;;;5.25;1.25;;;;;;;;;;5028455;28;20034;-63
2022/06/24 07:32:00;;;;;;;3.53;1.30;;;;;;;;;;5032037;28;20033;-68
2022/06/24 07:34:26;;;;;;;5.72;1.75;;;;;;;;;;5031611;28;20024;-66
2022/06/24 07:36:53;;;;;;;8.18;2.22;;;;;;;;;;5028432;28;20018;-67
2022/06/24 07:39:19;;;;;;;3.97;1.30;;;;;;;;;;5027295;28;20033;-68
2022/06/24 07:41:45;;;;;;;6.00;1.45;;;;;;;;;;5024593;28;20024;-66
2022/06/24 07:44:11;;;;;;;3.63;1.33;;;;;;;;;;5028660;28;20017;-68
2022/06/24 07:46:37;;;;;;;4.70;1.40;;;;;;;;;;5027188;28;20041;-67
2022/06/24 07:49:03;;;;;;;2.22;1.20;;;;;;;;;;5028932;28;20071;-67
2022/06/24 07:51:29;;;;;;;4.53;1.77;;;;;;;;;;5028632;28;20037;-67
2022/06/24 07:53:55;;;;;;;3.85;1.20;;;;;;;;;;5032254;28;20036;-67
2022/06/24 07:59:06;;;;;;;2.78;1.33;;;;;;;;;;5031542;28;20064;-67
2022/06/24 08:01:33;;;;;;;4.13;2.17;;;;;;;;;;5030274;28;20578;-68
2022/06/24 08:03:59;;;;;;;5.00;1.83;;;;;;;;;;5031042;28;20030;-67
2022/06/24 08:06:25;;;;;;;3.70;1.08;;;;;;;;;;5032823;28;20517;-59
2022/06/24 08:08:51;;;;;;;5.03;1.20;;;;;;;;;;5029511;28;20378;-66
2022/06/24 08:11:17;;;;;;;4.00;1.10;;;;;;;;;;5022608;28;20532;-67
2022/06/24 08:13:43;;;;;;;3.78;1.70;;;;;;;;;;5026945;28;20629;-66
2022/06/24 08:16:09;;;;;;;3.58;1.60;;;;;;;;;;5031489;28;20025;-67
2022/06/24 08:18:35;;;;;;;5.85;1.35;;;;;;;;;;5030808;28;20037;-67
2022/06/24 08:21:01;;;;;;;4.05;1.40;;;;;;;;;;5031772;28;20034;-67
2022/06/24 08:23:27;;;;;;;4.50;1.20;;;;;;;;;;5029354;28;20029;-66
2022/06/24 08:25:53;;;;;;;3.10;1.48;;;;;;;;;;5028946;28;20095;-64
2022/06/24 08:28:19;;;;;;;1.52;1.10;;;;;;;;;;5027367;28;20026;-63
2022/06/24 08:30:45;;;;;;;3.63;1.00;;;;;;;;;;5028011;28;20057;-66
2022/06/24 08:33:12;;;;;;;2.97;1.10;;;;;;;;;;5031375;28;20021;-66
2022/06/24 08:35:38;;;;;;;3.30;0.95;;;;;;;;;;5022364;28;20029;-66
2022/06/24 08:38:04;;;;;;;1.17;1.02;;;;;;;;;;5031495;28;20025;-66
2022/06/24 08:40:30;;;;;;;7.00;1.70;;;;;;;;;;5031077;28;20049;-66
2022/06/24 08:42:57;;;;;;;2.00;1.05;;;;;;;;;;5030925;28;20390;-65
2022/06/24 08:45:24;;;;;;;3.78;1.00;;;;;;;;;;5030947;28;20021;-60
2022/06/24 08:47:50;;;;;;;2.33;0.95;;;;;;;;;;5029912;28;20033;-66
2022/06/24 08:50:17;;;;;;;2.17;0.90;;;;;;;;;;5030773;28;20532;-68
2022/06/24 08:52:47;;;;;;;2.78;0.93;;;;;;;;;;5028218;28;20102;-68
2022/06/24 08:55:17;;;;;;;3.97;1.20;;;;;;;;;;5023242;28;20029;-68
2022/06/24 08:57:44;;;;;;;2.95;0.90;;;;;;;;;;5030261;28;20038;-68
2022/06/24 09:00:10;;;;;;;2.72;1.40;;;;;;;;;;5029744;28;20025;-68
2022/06/24 09:02:36;;;;;;;1.77;0.93;;;;;;;;;;5029179;28;20061;-67
2022/06/24 09:05:10;;;;;;;3.03;1.05;;;;;;;;;;5031328;28;20032;-67
2022/06/24 09:07:36;;;;;;;2.75;1.15;;;;;;;;;;5030335;28;20022;-68
2022/06/24 09:10:06;;;;;;;3.33;1.10;;;;;;;;;;5028483;28;20033;-66
2022/06/24 09:12:39;;;;;;;2.63;0.90;;;;;;;;;;5020332;28;20029;-68
2022/06/24 09:15:06;;;;;;;1.80;0.98;;;;;;;;;;5027952;28;20029;-68
2022/06/24 09:17:32;;;;;;;1.58;0.98;;;;;;;;;;5030163;28;20037;-67
2022/06/24 09:20:19;;;;;;;1.63;0.98;;;;;;;;;;5031029;28;20029;-69
2022/06/24 09:22:45;;;;;;;3.65;1.08;;;;;;;;;;5022762;28;20030;-66
2022/06/24 09:25:11;;;;;;;2.42;0.80;;;;;;;;;;5034929;28;20025;-67
2022/06/24 09:27:42;;;;;;;2.63;1.00;;;;;;;;;;5036112;28;20033;-68
2022/06/24 09:30:09;;;;;;;3.70;1.17;;;;;;;;;;5027498;28;20491;-68
2022/06/24 09:32:35;;;;;;;2.75;1.15;;;;;;;;;;5016500;28;20018;-67
2022/06/24 09:35:09;;;;;;;3.78;1.38;;;;;;;;;;5029946;28;20039;-68
2022/06/24 09:37:35;;;;;;;1.50;0.88;;;;;;;;;;5024281;28;20028;-68
2022/06/24 09:40:17;;;;;;;1.50;0.80;;;;;;;;;;5030475;28;20037;-67
2022/06/24 09:42:43;;;;;;;1.58;1.10;;;;;;;;;;5029689;28;20034;-68
2022/06/24 09:45:09;;;;;;;2.53;1.30;;;;;;;;;;5030418;28;20034;-67
2022/06/24 09:47:39;;;;;;;2.47;1.00;;;;;;;;;;5025253;28;20021;-68
2022/06/24 09:50:05;;;;;;;1.70;0.93;;;;;;;;;;5028793;28;20042;-67
2022/06/24 09:52:32;;;;;;;2.35;0.70;;;;;;;;;;5030002;28;20033;-67
2022/06/24 09:54:58;;;;;;;2.50;1.30;;;;;;;;;;5028344;28;20096;-68
2022/06/24 09:57:25;;;;;;;4.10;1.70;;;;;;;;;;5026846;28;20033;-68
2022/06/24 10:02:35;;;;;;;1.75;0.88;;;;;;;;;;5029891;28;20551;-68
2022/06/24 10:05:02;;;;;;;1.10;0.70;;;;;;;;;;5033738;28;20296;-68
2022/06/24 10:07:30;;;;;;;1.92;1.00;;;;;;;;;;5031965;28;20436;-59
2022/06/24 10:09:56;;;;;;;1.50;0.77;;;;;;;;;;5031829;28;20786;-68
2022/06/24 10:12:23;;;;;;;1.30;0.70;;;;;;;;;;5033560;28;20467;-64
2022/06/24 10:14:50;;;;;;;1.83;0.98;;;;;;;;;;5029404;28;20033;-68
2022/06/24 10:17:17;;;;;;;2.13;0.98;;;;;;;;;;5032912;28;20022;-63
2022/06/24 10:19:44;;;;;;;1.63;0.90;;;;;;;;;;5029803;28;20497;-67
2022/06/24 10:22:09;;;;;;;1.02;0.70;;;;;;;;;;5031289;28;20129;-67
2022/06/24 10:24:40;;;;;;;2.75;0.95;;;;;;;;;;5027540;28;20526;-67
2022/06/24 10:27:06;;;;;;;2.08;0.90;;;;;;;;;;5028651;28;20152;-68
2022/06/24 10:29:33;;;;;;;1.48;0.82;;;;;;;;;;5026935;28;20119;-66
2022/06/24 10:32:00;;;;;;;0.85;0.68;;;;;;;;;;5005663;28;20069;-68
2022/06/24 10:34:30;;;;;;;1.40;0.70;;;;;;;;;;5007505;28;20251;-60
2022/06/24 10:36:58;;;;;;;2.10;0.73;;;;;;;;;;5007718;28;20026;-67
2022/06/24 10:39:25;;;;;;;1.80;0.90;;;;;;;;;;5014072;28;20034;-67
2022/06/24 10:42:05;;;;;;;2.13;0.93;;;;;;;;;;5007823;28;20022;-63
2022/06/24 10:44:35;;;;;;;1.40;0.70;;;;;;;;;;5008524;28;20017;-63
2022/06/24 10:47:10;;;;;;;3.58;1.02;;;;;;;;;;5012007;28;20042;-67
2022/06/24 10:49:51;;;;;;;1.00;0.70;;;;;;;;;;5020813;28;20033;-68
2022/06/24 10:52:36;;;;;;;0.90;0.60;;;;;;;;;;5012066;28;20030;-68
2022/06/24 10:55:17;;;;;;;1.23;0.98;;;;;;;;;;5014870;28;20145;-68
2022/06/24 10:57:52;;;;;;;1.98;0.95;;;;;;;;;;5009846;28;20029;-68
2022/06/24 11:00:21;;;;;;;0.90;0.73;;;;;;;;;;5015910;28;20057;-67
2022/06/24 11:02:49;;;;;;;1.25;0.85;;;;;;;;;;5009240;28;20042;-68
2022/06/24 11:05:36;;;;;;;3.70;1.08;;;;;;;;;;5010031;28;20026;-63
2022/06/24 11:08:03;;;;;;;4.15;1.30;;;;;;;;;;5021501;28;20026;-67
2022/06/24 11:10:30;;;;;;;1.27;0.90;;;;;;;;;;5007802;28;20041;-60
2022/06/24 11:13:00;;;;;;;3.00;1.42;;;;;;;;;;5013897;28;20028;-68
2022/06/24 11:15:36;;;;;;;1.73;0.60;;;;;;;;;;5007680;28;20053;-63
2022/06/24 11:18:06;;;;;;;1.90;0.98;;;;;;;;;;5009721;28;20030;-68
2022/06/24 11:20:34;;;;;;;2.00;0.90;;;;;;;;;;5000677;28;20030;-67
2022/06/24 11:23:00;;;;;;;1.65;1.00;;;;;;;;;;5006286;28;20506;-68
2022/06/24 11:25:27;;;;;;;2.20;1.10;;;;;;;;;;5005733;28;20022;-66
2022/06/24 11:27:53;;;;;;;1.02;0.60;;;;;;;;;;5011126;28;20032;-64
2022/06/24 11:30:20;;;;;;;1.50;0.70;;;;;;;;;;5017807;28;20061;-69
2022/06/24 11:32:52;;;;;;;2.47;0.90;;;;;;;;;;5030190;28;20025;-68
2022/06/24 11:35:18;;;;;;;1.70;0.98;;;;;;;;;;5029284;28;20022;-66
2022/06/24 11:37:44;;;;;;;3.85;1.65;;;;;;;;;;5032391;28;20103;-66
2022/06/24 11:40:11;;;;;;;3.72;1.30;;;;;;;;;;5026504;28;20056;-67
2022/06/24 11:42:37;;;;;;;2.60;1.52;;;;;;;;;;5027300;28;20498;-65
2022/06/24 11:45:03;;;;;;;3.00;1.33;;;;;;;;;;5028237;28;20029;-67
2022/06/24 11:47:33;;;;;;;3.50;1.33;;;;;;;;;;5031183;28;20142;-60
2022/06/24 11:49:59;;;;;;;4.53;1.63;;;;;;;;;;5027079;28;20030;-66
2022/06/24 11:52:25;;;;;;;4.72;1.75;;;;;;;;;;5027993;28;20087;-67
2022/06/24 11:54:51;;;;;;;4.32;1.30;;;;;;;;;;5023436;28;20033;-67
2022/06/24 11:57:17;;;;;;;5.20;1.25;;;;;;;;;;5034381;28;20021;-67
2022/06/24 11:59:43;;;;;;;4.30;1.80;;;;;;;;;;5024035;28;20061;-66
2022/06/24 12:02:14;;;;;;;1.98;1.00;;;;;;;;;;5020853;28;20079;-67
2022/06/24 12:04:40;;;;;;;3.67;1.13;;;;;;;;;;5028152;28;20030;-67
2022/06/24 12:07:07;;;;;;;3.83;1.63;;;;;;;;;;5031260;28;20026;-66
2022/06/24 12:09:33;;;;;;;1.73;0.93;;;;;;;;;;5030738;28;20029;-60
2022/06/24 12:12:09;;;;;;;3.47;1.30;;;;;;;;;;5029233;28;20041;-66
2022/06/24 12:14:37;;;;;;;4.53;1.55;;;;;;;;;;5023043;28;20081;-66
2022/06/24 12:17:07;;;;;;;3.67;1.13;;;;;;;;;;5029736;28;20099;-66
2022/06/24 12:19:35;;;;;;;3.42;1.02;;;;;;;;;;5030180;28;20076;-59
2022/06/24 12:22:05;;;;;;;3.03;0.90;;;;;;;;;;5028633;28;20026;-66
2022/06/24 12:24:31;;;;;;;2.80;0.98;;;;;;;;;;5029423;28;20490;-59
2022/06/24 12:26:58;;;;;;;4.60;1.42;;;;;;;;;;5026077;28;20478;-66
2022/06/24 12:29:31;;;;;;;3.22;1.10;;;;;;;;;;5031729;28;20084;-67
2022/06/24 12:31:58;;;;;;;1.60;0.75;;;;;;;;;;4998048;28;20095;-67
2022/06/24 12:34:32;;;;;;;2.85;1.20;;;;;;;;;;5005068;28;20478;-67
2022/06/24 12:37:02;;;;;;;3.10;0.98;;;;;;;;;;5008436;28;20058;-67
2022/06/24 12:39:33;;;;;;;3.47;0.93;;;;;;;;;;5011672;28;20045;-66
2022/06/24 12:41:59;;;;;;;2.13;1.17;;;;;;;;;;5005831;28;20061;-66
2022/06/24 12:44:30;;;;;;;3.05;1.10;;;;;;;;;;4996471;28;20026;-67
2022/06/24 12:52:36;;;;;;;2.42;0.90;;;;;;;;;;5009246;28;20037;-60
2022/06/24 12:55:03;;;;;;;6.10;1.33;;;;;;;;;;5010720;28;20033;-67
2022/06/24 12:57:29;;;;;;;3.15;1.20;;;;;;;;;;5006910;28;20026;-65
2022/06/24 12:59:56;;;;;;;4.32;1.00;;;;;;;;;;5010042;28;20041;-63
2022/06/24 13:02:22;;;;;;;5.80;1.83;;;;;;;;;;5000432;28;20038;-66
2022/06/24 13:04:48;;;;;;;6.63;1.67;;;;;;;;;;4990862;28;20046;-64
2022/06/24 13:07:14;;;;;;;9.55;1.27;;;;;;;;;;5004561;28;20080;-66
2022/06/24 13:09:40;;;;;;;3.88;1.30;;;;;;;;;;5004747;28;20057;-62
2022/06/24 13:12:06;;;;;;;3.05;1.20;;;;;;;;;;5002308;28;20029;-61
2022/06/24 13:14:32;;;;;;;3.58;1.30;;;;;;;;;;5004959;28;20048;-59
2022/06/24 13:16:58;;;;;;;2.50;1.10;;;;;;;;;;5005254;28;20033;-61
2022/06/24 13:19:24;;;;;;;3.78;1.52;;;;;;;;;;5007031;28;20041;-60
2022/06/24 13:21:50;;;;;;;4.05;1.38;;;;;;;;;;5005790;28;20109;-61
2022/06/24 13:24:19;;;;;;;1.88;1.10;;;;;;;;;;5006366;28;20042;-62
2022/06/24 13:26:45;;;;;;;6.00;1.50;;;;;;;;;;5005219;28;20500;-63
2022/06/24 13:29:11;;;;;;;3.13;1.10;;;;;;;;;;5010485;28;20415;-60
2022/06/24 13:31:38;;;;;;;3.33;1.25;;;;;;;;;;5016081;28;20060;-62
2022/06/24 13:34:04;;;;;;;2.45;1.10;;;;;;;;;;5026284;28;20463;-60
2022/06/24 13:36:30;;;;;;;5.15;1.48;;;;;;;;;;5020360;28;20110;-60
2022/06/24 13:38:56;;;;;;;4.88;1.17;;;;;;;;;;5023302;28;20512;-62
2022/06/24 13:41:22;;;;;;;1.83;1.05;;;;;;;;;;5034012;28;20053;-60
2022/06/24 13:43:48;;;;;;;4.90;1.45;;;;;;;;;;5033384;28;20032;-60
2022/06/24 13:46:14;;;;;;;2.28;1.00;;;;;;;;;;5031217;28;20479;-61
2022/06/24 13:48:40;;;;;;;9.05;1.73;;;;;;;;;;5025643;28;20029;-59
2022/06/24 13:51:06;;;;;;;3.17;0.90;;;;;;;;;;5030175;28;20038;-58
2022/06/24 13:53:33;;;;;;;5.30;1.55;;;;;;;;;;5031108;28;20026;-61
2022/06/24 13:55:59;;;;;;;2.45;1.10;;;;;;;;;;5028564;28;20037;-60
2022/06/24 13:58:25;;;;;;;3.40;1.52;;;;;;;;;;5029439;28;20040;-63
2022/06/24 14:00:51;;;;;;;3.30;1.10;;;;;;;;;;5029634;28;20041;-61
2022/06/24 14:03:17;;;;;;;2.15;1.30;;;;;;;;;;5032928;28;20045;-60
2022/06/24 14:05:43;;;;;;;2.80;1.10;;;;;;;;;;5014908;28;20039;-62
2022/06/24 14:08:09;;;;;;;4.30;1.10;;;;;;;;;;5029512;28;20054;-60
2022/06/24 14:10:35;;;;;;;3.45;1.00;;;;;;;;;;5022829;28;20121;-59
2022/06/24 14:13:01;;;;;;;1.70;1.30;;;;;;;;;;5032959;28;20103;-59
2022/06/24 14:15:27;;;;;;;4.30;1.70;;;;;;;;;;5033427;28;20506;-60
2022/06/24 14:17:54;;;;;;;3.67;1.33;;;;;;;;;;5031691;28;20041;-61
2022/06/24 14:20:20;;;;;;;4.68;1.80;;;;;;;;;;5032190;28;20067;-60
2022/06/24 14:25:32;;;;;;;3.58;1.38;;;;;;;;;;5032993;28;20449;-62
2022/06/24 14:27:58;;;;;;;3.70;1.00;;;;;;;;;;5026705;28;20017;-61
2022/06/24 14:30:24;;;;;;;3.15;1.40;;;;;;;;;;5019086;28;20049;-62
2022/06/24 14:32:50;;;;;;;4.10;1.23;;;;;;;;;;5006450;28;20030;-62
2022/06/24 14:35:15;;;;;;;2.10;1.20;;;;;;;;;;5012968;28;20081;-67
2022/06/24 14:40:26;;;;;;;3.13;1.80;;;;;;;;;;5009292;28;20032;-61
2022/06/24 14:42:52;;;;;;;1.65;1.25;;;;;;;;;;5005041;28;20434;-62
2022/06/24 14:45:18;;;;;;;3.97;1.25;;;;;;;;;;4994898;28;20080;-59
2022/06/24 14:47:44;;;;;;;3.55;1.23;;;;;;;;;;5008637;28;20467;-62
2022/06/24 14:50:10;;;;;;;5.45;1.60;;;;;;;;;;5013956;28;20049;-65
2022/06/24 14:52:36;;;;;;;3.47;1.27;;;;;;;;;;5015281;28;20482;-58
2022/06/24 14:55:04;;;;;;;1.95;1.17;;;;;;;;;;5017898;28;20099;-66
2022/06/24 14:57:30;;;;;;;3.53;1.35;;;;;;;;;;5005937;28;20034;-63
2022/06/24 14:59:56;;;;;;;2.08;1.08;;;;;;;;;;5011153;28;20042;-65
2022/06/24 15:02:22;;;;;;;2.95;0.93;;;;;;;;;;5012903;28;20077;-65
2022/06/24 15:04:48;;;;;;;2.85;0.77;;;;;;;;;;5011264;28;20034;-64